KEWN/EWN METAR and TAF weather

Enter ICAO airport designator
Station Type Date Time Source
KEWN METAR 2022/06/25 22:54 UTC NOAA

KEWN 252254Z 12007KT 10SM CLR 28/19 A3012 RMK AO2 SLP199 T02780194


Station Type Date Time Source
KEWN Decoded METAR 2022/06/25 22:54 UTC NOAA

New Bern, Craven County Regional Airport, NC, United States (KEWN) 35-04-03N 077-02-50W 3M
Jun 25, 2022 - 06:54 PM EDT / 2022.06.25 2254 UTC
Wind: from the ESE (120 degrees) at 8 MPH (7 KT):0
Visibility: 10 mile(s):0
Sky conditions: clear
Temperature: 82.0 F (27.8 C)
Dew Point: 66.9 F (19.4 C)
Relative Humidity: 60%
Pressure (altimeter): 30.12 in. Hg (1019 hPa)
ob: KEWN 252254Z 12007KT 10SM CLR 28/19 A3012 RMK AO2 SLP199 T02780194
cycle: 23

Station Type Date Time Source
KEWN TAF 2022/06/25 18:48 UTC NOAA

TAF KEWN 251745Z 2518/2618 10007KT P6SM FEW040
FM260900 VRB02KT 5SM BR FEW015
FM261200 08005KT P6SM SCT040

Example: see airport list